Página principal
METAR-TAF:

METAR-TAF

Aeroportos :

Aeroporto de Benguela

Benguela, Angola

latitude: 12-36-30S, longitude: 13-24-10E, altura: 36 m

METAR: em falta

Hora: 09:42 (08:42 UTC)

Previsão

O boletim foi feito há 9 horas e 42 minutos, às 23:00 UTC
Previsão válida de 04 às 00 UTC a 04 às 12 UTC
Vento 8 kt de sul
Visibilidade 10 km ou mais
Nuvens fragmentadasa uma altura de 2500 ft

TAF: FNBG 032300Z 0400/0412 19008KT 9999 BKN025

Observações e previsões do tempo de mais de 4000 aeroportos (mensagens METAR e TAF).

As estações disponíveis são os pontos amarelos e vermelhos sobre o mapa.

Mova o rato sobre o mapa para ver o nome da estação.

Depois clique no ponto para visualizar as observações e previsões meteorológicas.

Para alterar o mapa : clique nos botões verdes com uma cruz preta para aumentar o zoom; no botão verde com uma pitada de zoom; ou nas setas verdes para mapas adjacentes.


METAR-TAF: